createdAt,value
2017-10-28T00:02:26.671Z,7.43
2017-10-28T00:04:54.163Z,5.80
2017-10-28T00:07:21.685Z,7.47
2017-10-28T00:09:49.970Z,7.20
2017-10-28T00:12:17.883Z,8.17
2017-10-28T00:14:45.395Z,6.60
2017-10-28T00:17:12.892Z,6.70
2017-10-28T00:19:40.379Z,7.27
2017-10-28T00:22:07.867Z,7.47
2017-10-28T00:24:36.126Z,7.30
2017-10-28T00:27:04.387Z,6.90
2017-10-28T00:29:31.890Z,7.20
2017-10-28T00:32:05.859Z,7.67
2017-10-28T00:34:39.489Z,8.40
2017-10-28T00:37:06.982Z,6.67
2017-10-28T00:39:34.882Z,8.23
2017-10-28T00:42:03.511Z,7.40
2017-10-28T00:44:31.004Z,7.23
2017-10-28T00:46:58.490Z,8.37
2017-10-28T00:49:25.984Z,7.47
2017-10-28T00:51:53.482Z,7.40
2017-10-28T00:54:21.748Z,6.30
2017-10-28T00:56:50.086Z,7.93
2017-10-28T00:59:17.582Z,8.30
2017-10-28T01:01:46.211Z,7.00
2017-10-28T01:04:14.103Z,7.60
2017-10-28T01:06:43.103Z,8.10
2017-10-28T01:09:10.595Z,7.73
2017-10-28T01:11:38.084Z,7.07
2017-10-28T01:14:05.582Z,9.10
2017-10-28T01:16:33.079Z,8.30
2017-10-28T01:19:00.599Z,7.20
2017-10-28T01:21:28.494Z,7.50
2017-10-28T01:23:56.020Z,8.10
2017-10-28T01:26:24.279Z,8.10
2017-10-28T01:28:51.795Z,8.03
2017-10-28T01:31:20.066Z,7.17
2017-10-28T01:33:47.589Z,8.60
2017-10-28T01:36:15.084Z,8.10
2017-10-28T01:38:42.613Z,7.90
2017-10-28T01:41:10.102Z,8.60
2017-10-28T01:43:37.623Z,6.90
2017-10-28T01:46:05.115Z,7.90
2017-10-28T01:48:32.605Z,7.60
2017-10-28T01:51:01.231Z,7.47
2017-10-28T01:53:28.723Z,7.93
2017-10-28T01:55:56.695Z,7.90
2017-10-28T01:58:24.190Z,7.27
2017-10-28T02:00:53.043Z,6.20
2017-10-28T02:03:21.318Z,7.50
2017-10-28T02:05:49.658Z,7.67
2017-10-28T02:08:17.150Z,7.90
2017-10-28T02:10:44.643Z,6.80
2017-10-28T02:13:13.651Z,8.03
2017-10-28T02:15:41.538Z,7.90
2017-10-28T02:18:09.031Z,7.93
2017-10-28T02:20:36.535Z,7.50
2017-10-28T02:23:04.043Z,8.00
2017-10-28T02:25:31.539Z,7.97
2017-10-28T02:27:59.036Z,8.13
2017-10-28T02:30:26.939Z,8.50
2017-10-28T02:32:54.434Z,8.67
2017-10-28T02:35:21.928Z,8.03
2017-10-28T02:37:49.440Z,7.23
2017-10-28T02:40:16.935Z,8.27
2017-10-28T02:42:44.428Z,7.77
2017-10-28T02:45:13.274Z,8.47
2017-10-28T02:47:41.532Z,8.03
2017-10-28T02:50:09.023Z,8.90
2017-10-28T02:52:36.512Z,8.13
2017-10-28T02:55:04.006Z,8.03
2017-10-28T02:57:31.495Z,7.87
2017-10-28T02:59:59.754Z,8.70
2017-10-28T03:02:28.383Z,9.37
2017-10-28T03:04:55.876Z,8.20
2017-10-28T03:07:24.139Z,8.23
2017-10-28T03:09:52.035Z,8.87
2017-10-28T03:12:20.291Z,10.80
2017-10-28T03:17:56.572Z,8.13
2017-10-28T03:20:24.067Z,8.43
2017-10-28T03:22:51.567Z,8.70
2017-10-28T03:25:19.058Z,9.50
2017-10-28T03:27:46.559Z,8.43
2017-10-28T03:30:14.817Z,7.90
2017-10-28T03:32:42.324Z,8.20
2017-10-28T03:35:09.819Z,8.97
2017-10-28T03:37:38.679Z,8.70
2017-10-28T03:40:06.948Z,8.07
2017-10-28T03:42:35.795Z,8.07
2017-10-28T03:45:04.065Z,8.67
2017-10-28T03:47:32.703Z,9.30
2017-10-28T03:50:00.972Z,9.70
2017-10-28T03:52:28.485Z,7.67
2017-10-28T03:54:56.415Z,8.10
2017-10-28T03:57:23.917Z,8.80
2017-10-28T03:59:51.827Z,7.90
2017-10-28T04:02:19.331Z,7.87
2017-10-28T04:04:47.260Z,8.33
2017-10-28T04:07:14.752Z,8.27
2017-10-28T04:09:42.266Z,8.17
2017-10-28T04:12:09.756Z,8.70
2017-10-28T04:14:38.524Z,7.67
2017-10-28T04:17:06.415Z,7.50
2017-10-28T04:19:33.935Z,7.40
2017-10-28T04:22:01.432Z,8.90
2017-10-28T04:24:28.963Z,8.00
2017-10-28T04:26:56.855Z,7.70
2017-10-28T04:29:24.386Z,8.30
2017-10-28T04:31:54.166Z,7.07
2017-10-28T04:34:23.422Z,8.23
2017-10-28T04:36:50.927Z,8.20
2017-10-28T04:39:18.448Z,8.57
2017-10-28T04:41:47.429Z,7.90
2017-10-28T04:44:14.941Z,7.87
2017-10-28T04:46:43.626Z,7.80
2017-10-28T04:49:11.145Z,8.03
2017-10-28T04:51:38.647Z,7.93
2017-10-28T04:54:06.909Z,7.30
2017-10-28T04:56:34.811Z,7.97
2017-10-28T04:59:02.300Z,7.23
2017-10-28T05:01:29.802Z,6.20
2017-10-28T05:03:57.292Z,7.70
2017-10-28T05:06:24.790Z,7.87
2017-10-28T05:08:53.061Z,8.10
2017-10-28T05:11:20.583Z,7.40
2017-10-28T05:13:48.066Z,7.80
2017-10-28T05:16:15.952Z,7.17
2017-10-28T05:18:44.821Z,7.77
2017-10-28T05:21:12.730Z,8.17
2017-10-28T05:23:40.231Z,8.10
2017-10-28T05:26:07.729Z,8.33
2017-10-28T05:28:35.218Z,7.40
2017-10-28T05:31:02.706Z,7.27
2017-10-28T05:33:30.216Z,7.50
2017-10-28T05:35:58.493Z,7.67
2017-10-28T05:38:26.844Z,6.97
2017-10-28T05:40:54.342Z,7.30
2017-10-28T05:43:23.371Z,8.00
2017-10-28T05:45:50.887Z,9.47
2017-10-28T05:48:18.396Z,7.57
2017-10-28T05:50:45.891Z,7.70
2017-10-28T05:53:13.400Z,8.37
2017-10-28T05:55:40.926Z,7.27
2017-10-28T05:58:09.186Z,7.73
2017-10-28T06:00:36.704Z,7.17
2017-10-28T06:03:04.215Z,9.83
2017-10-28T06:05:32.491Z,8.40
2017-10-28T06:07:59.983Z,7.40
2017-10-28T06:10:27.495Z,6.97
2017-10-28T06:12:56.343Z,8.10
2017-10-28T06:15:24.653Z,8.70
2017-10-28T06:17:52.543Z,9.30
2017-10-28T06:20:20.093Z,8.40
2017-10-28T06:22:47.987Z,9.87
2017-10-28T06:25:15.507Z,8.80
2017-10-28T06:27:44.366Z,7.90
2017-10-28T06:30:11.882Z,9.27
2017-10-28T06:32:39.370Z,7.70
2017-10-28T06:35:06.884Z,7.70
2017-10-28T06:37:34.391Z,7.60
2017-10-28T06:40:01.960Z,8.70
2017-10-28T06:42:30.227Z,7.90
2017-10-28T06:44:58.541Z,8.07
2017-10-28T06:47:26.044Z,7.40
2017-10-28T06:49:53.535Z,8.27
2017-10-28T06:52:21.047Z,7.33
2017-10-28T06:54:48.552Z,7.13
2017-10-28T06:57:16.443Z,7.27
2017-10-28T06:59:44.336Z,7.43
2017-10-28T07:02:11.833Z,8.27
2017-10-28T07:04:39.339Z,7.73
2017-10-28T07:07:08.191Z,7.43
2017-10-28T07:09:35.680Z,8.17
2017-10-28T07:12:03.179Z,7.83
2017-10-28T07:14:30.667Z,8.23
2017-10-28T07:16:58.178Z,7.40
2017-10-28T07:19:26.522Z,8.10
2017-10-28T07:21:54.024Z,8.10
2017-10-28T07:24:21.523Z,7.43
2017-10-28T07:26:49.420Z,8.20
2017-10-28T07:29:18.423Z,7.47
2017-10-28T07:31:46.678Z,9.20
2017-10-28T07:34:14.975Z,8.17
2017-10-28T07:36:42.870Z,7.87
2017-10-28T07:39:11.123Z,7.03
2017-10-28T07:41:38.628Z,7.30
2017-10-28T07:44:06.127Z,7.80
2017-10-28T07:46:33.644Z,7.80
2017-10-28T07:49:01.134Z,8.40
2017-10-28T07:51:29.390Z,8.20
2017-10-28T07:53:57.285Z,7.37
2017-10-28T07:56:24.791Z,7.10
2017-10-28T07:58:52.300Z,7.50
2017-10-28T08:01:19.820Z,6.87
2017-10-28T08:03:53.843Z,6.80
2017-10-28T08:06:22.119Z,7.50
2017-10-28T08:08:50.383Z,6.27
2017-10-28T08:11:18.696Z,6.63
2017-10-28T08:13:46.950Z,6.60
2017-10-28T08:16:15.603Z,6.30
2017-10-28T08:18:43.096Z,5.50
2017-10-28T08:21:11.020Z,6.50
2017-10-28T08:23:39.283Z,6.17
2017-10-28T08:26:07.199Z,6.80
2017-10-28T08:28:34.691Z,5.60
2017-10-28T08:31:02.224Z,6.30
2017-10-28T08:33:29.719Z,6.70
2017-10-28T08:35:57.249Z,5.63
2017-10-28T08:38:24.743Z,5.90
2017-10-28T08:40:52.263Z,6.23
2017-10-28T08:43:21.109Z,6.23
2017-10-28T08:45:49.016Z,5.23
2017-10-28T08:48:16.915Z,5.20
2017-10-28T08:50:44.416Z,6.20
2017-10-28T08:53:11.920Z,7.20
2017-10-28T08:55:39.420Z,5.33
2017-10-28T08:58:07.312Z,6.37
2017-10-28T09:00:34.820Z,5.70
2017-10-28T09:03:02.320Z,6.03
2017-10-28T09:05:29.830Z,5.97
2017-10-28T09:07:57.331Z,6.73
2017-10-28T09:10:25.231Z,5.80
2017-10-28T09:12:52.724Z,5.77
2017-10-28T09:15:20.223Z,5.80
2017-10-28T09:17:48.484Z,7.00
2017-10-28T09:20:15.983Z,6.30
2017-10-28T09:22:43.479Z,7.93
2017-10-28T09:25:11.747Z,5.40
2017-10-28T09:27:39.243Z,6.80
2017-10-28T09:30:06.750Z,6.80
2017-10-28T09:32:34.258Z,6.77
2017-10-28T09:35:02.156Z,5.77
2017-10-28T09:37:29.643Z,6.90
2017-10-28T09:39:57.138Z,7.73
2017-10-28T09:42:24.625Z,6.10
2017-10-28T09:44:52.511Z,6.53
2017-10-28T09:47:20.017Z,7.00
2017-10-28T09:49:47.519Z,6.23
2017-10-28T09:52:15.048Z,6.80
2017-10-28T09:54:42.575Z,7.67
2017-10-28T09:57:10.095Z,6.13
2017-10-28T09:59:37.611Z,7.13
2017-10-28T10:02:05.523Z,6.40
2017-10-28T10:04:33.015Z,6.23
2017-10-28T10:07:00.543Z,6.30
2017-10-28T10:09:28.812Z,5.70
2017-10-28T10:11:57.099Z,5.30
2017-10-28T10:14:25.371Z,5.70
2017-10-28T10:16:54.395Z,5.40
2017-10-28T10:19:21.891Z,5.57
2017-10-28T10:21:49.407Z,5.00
2017-10-28T10:24:16.903Z,6.00
2017-10-28T10:26:44.466Z,4.93
2017-10-28T10:29:11.951Z,5.83
2017-10-28T10:31:39.856Z,5.23
2017-10-28T10:34:08.868Z,5.37
2017-10-28T10:36:37.163Z,4.57
2017-10-28T10:39:05.429Z,4.63
2017-10-28T10:41:34.307Z,4.87
2017-10-28T10:44:01.805Z,4.37
2017-10-28T10:46:29.315Z,4.23
2017-10-28T10:48:56.815Z,4.83
2017-10-28T10:51:24.323Z,5.27
2017-10-28T10:53:52.587Z,4.07
2017-10-28T10:56:20.102Z,4.73
2017-10-28T10:58:47.600Z,4.30
2017-10-28T11:01:15.096Z,4.20
2017-10-28T11:03:42.583Z,3.30
2017-10-28T11:06:10.846Z,4.73
2017-10-28T11:08:38.343Z,3.80
2017-10-28T11:11:05.836Z,4.47
2017-10-28T11:13:34.099Z,4.27
2017-10-28T11:16:03.103Z,4.37
2017-10-28T11:18:30.600Z,3.63
2017-10-28T11:20:58.093Z,4.27
2017-10-28T11:23:26.367Z,4.00
2017-10-28T11:25:54.258Z,3.33
2017-10-28T11:28:21.759Z,4.13
2017-10-28T11:30:49.258Z,4.70
2017-10-28T11:33:16.754Z,4.33
2017-10-28T11:35:44.262Z,4.10
2017-10-28T11:38:11.783Z,4.00
2017-10-28T11:40:39.290Z,4.30
2017-10-28T11:43:07.565Z,4.13
2017-10-28T11:45:35.835Z,4.20
2017-10-28T11:48:03.740Z,4.10
2017-10-28T11:50:31.235Z,4.10
2017-10-28T11:52:58.727Z,4.93
2017-10-28T11:55:26.223Z,4.63
2017-10-28T11:57:53.746Z,3.53
2017-10-28T12:00:21.243Z,4.93
2017-10-28T12:02:49.532Z,4.93
2017-10-28T12:05:17.042Z,4.77
2017-10-28T12:07:44.561Z,4.03
2017-10-28T12:10:12.055Z,4.47
2017-10-28T12:12:39.967Z,3.87
2017-10-28T12:15:08.240Z,5.50
2017-10-28T12:17:35.759Z,4.37
2017-10-28T12:20:03.307Z,4.03
2017-10-28T12:22:30.835Z,4.67
2017-10-28T12:24:58.350Z,3.80
2017-10-28T12:27:26.284Z,3.40
2017-10-28T12:29:54.916Z,4.03
2017-10-28T12:32:22.447Z,3.97
2017-10-28T12:34:50.728Z,3.73
2017-10-28T12:37:18.635Z,3.80
2017-10-28T12:39:46.138Z,4.10
2017-10-28T12:42:14.052Z,4.70
2017-10-28T12:44:41.555Z,3.53
2017-10-28T12:47:09.471Z,3.60
2017-10-28T12:49:37.368Z,4.50
2017-10-28T12:52:04.883Z,4.30
2017-10-28T12:54:32.780Z,4.33
2017-10-28T12:57:00.298Z,4.10
2017-10-28T12:59:28.986Z,4.83
2017-10-28T13:01:56.513Z,4.20
2017-10-28T13:04:24.405Z,3.67
2017-10-28T13:06:51.921Z,4.00
2017-10-28T13:09:20.937Z,3.93
2017-10-28T13:11:48.444Z,4.03
2017-10-28T13:14:17.083Z,3.50
2017-10-28T13:16:44.596Z,4.73
2017-10-28T13:19:12.943Z,4.13
2017-10-28T13:21:40.436Z,3.90
2017-10-28T13:24:09.278Z,4.30
2017-10-28T13:26:36.776Z,4.70
2017-10-28T13:29:05.780Z,3.80
2017-10-28T13:31:33.280Z,4.10
2017-10-28T13:34:00.792Z,3.63
2017-10-28T13:36:28.679Z,3.77
2017-10-28T13:38:56.184Z,3.70
2017-10-28T13:41:24.467Z,3.60
2017-10-28T13:43:53.100Z,3.77
2017-10-28T13:46:20.623Z,3.90
2017-10-28T13:48:48.127Z,4.00
2017-10-28T13:51:15.631Z,3.93
2017-10-28T13:53:43.147Z,4.50
2017-10-28T13:56:10.646Z,4.37
2017-10-28T13:58:39.676Z,4.23
2017-10-28T14:01:08.551Z,4.27
2017-10-28T14:03:37.588Z,3.60
2017-10-28T14:06:05.860Z,4.20
2017-10-28T14:08:34.524Z,4.23
2017-10-28T14:11:03.371Z,4.27
2017-10-28T14:13:30.934Z,4.20
2017-10-28T14:15:59.193Z,3.20
2017-10-28T14:18:26.708Z,4.80
2017-10-28T14:20:55.371Z,4.07
2017-10-28T14:23:23.296Z,3.37
2017-10-28T14:25:50.835Z,3.10
2017-10-28T14:28:18.752Z,3.30
2017-10-28T14:30:47.022Z,3.80
2017-10-28T14:33:14.932Z,3.33
2017-10-28T14:35:43.210Z,3.73
2017-10-28T14:38:10.734Z,3.80
2017-10-28T14:40:38.255Z,3.50
2017-10-28T14:43:06.575Z,3.80
2017-10-28T14:45:34.463Z,3.70
2017-10-28T14:48:01.992Z,3.30
2017-10-28T14:50:30.631Z,4.00
2017-10-28T14:52:58.148Z,3.40
2017-10-28T14:55:25.659Z,3.67
2017-10-28T14:57:53.187Z,3.80
2017-10-28T15:00:20.687Z,3.80
2017-10-28T15:02:48.615Z,3.67
2017-10-28T15:05:16.113Z,3.50
2017-10-28T15:07:44.038Z,3.87
2017-10-28T15:10:11.534Z,3.37
2017-10-28T15:12:40.576Z,3.53
2017-10-28T15:15:08.464Z,3.30
2017-10-28T15:17:36.359Z,4.00
2017-10-28T15:20:03.859Z,3.70
2017-10-28T15:22:31.752Z,3.47
2017-10-28T15:24:59.250Z,3.60
2017-10-28T15:27:26.739Z,3.27
2017-10-28T15:29:54.235Z,4.27
2017-10-28T15:32:22.512Z,4.37
2017-10-28T15:34:50.787Z,3.80
2017-10-28T15:37:18.691Z,4.03
2017-10-28T15:39:46.204Z,3.70
2017-10-28T15:42:15.054Z,3.47
2017-10-28T15:44:42.561Z,4.17
2017-10-28T15:47:10.900Z,3.43
2017-10-28T15:49:38.396Z,4.10
2017-10-28T15:52:05.889Z,3.83
2017-10-28T15:54:33.411Z,4.37
2017-10-28T15:57:00.907Z,3.67
2017-10-28T15:59:28.430Z,3.07
2017-10-28T16:01:55.931Z,3.97
2017-10-28T16:04:23.448Z,3.73
2017-10-28T16:06:52.732Z,4.17
2017-10-28T16:09:20.252Z,3.50
2017-10-28T16:11:48.151Z,3.80
2017-10-28T16:14:15.679Z,3.80
2017-10-28T16:16:44.320Z,3.37
2017-10-28T16:19:11.855Z,4.23
2017-10-28T16:21:40.503Z,3.57
2017-10-28T16:24:09.155Z,4.20
2017-10-28T16:26:36.687Z,4.17
2017-10-28T16:29:04.219Z,6.90
2017-10-28T16:31:31.727Z,8.27
2017-10-28T16:33:59.252Z,7.17
2017-10-28T16:36:26.743Z,6.30
2017-10-28T16:38:54.276Z,3.87
2017-10-28T16:41:21.770Z,4.50
2017-10-28T16:43:49.679Z,5.20
2017-10-28T16:46:17.571Z,4.43
2017-10-28T16:48:45.075Z,3.63
2017-10-28T16:51:12.563Z,4.30
2017-10-28T16:53:41.436Z,3.57
2017-10-28T16:56:08.934Z,4.53
2017-10-28T16:58:36.451Z,6.67
2017-10-28T17:01:03.955Z,4.00
2017-10-28T17:03:31.476Z,4.47
2017-10-28T17:05:58.958Z,4.20
2017-10-28T17:08:26.451Z,4.50
2017-10-28T17:10:54.343Z,3.33
2017-10-28T17:13:21.823Z,3.77
2017-10-28T17:15:49.317Z,3.80
2017-10-28T17:18:17.595Z,3.80
2017-10-28T17:20:47.588Z,4.03
2017-10-28T17:23:15.855Z,4.10
2017-10-28T17:25:44.522Z,3.83
2017-10-28T17:28:12.031Z,2.80
2017-10-28T17:30:40.692Z,3.57
2017-10-28T17:33:08.229Z,3.50
2017-10-28T17:35:35.758Z,4.00
2017-10-28T17:38:03.647Z,3.70
2017-10-28T17:40:31.942Z,3.17
2017-10-28T17:42:59.435Z,3.40
2017-10-28T17:45:26.952Z,2.90
2017-10-28T17:47:54.447Z,3.30
2017-10-28T17:50:22.739Z,3.27
2017-10-28T17:52:50.245Z,4.03
2017-10-28T17:55:17.757Z,3.30
2017-10-28T17:57:45.246Z,3.20
2017-10-28T18:00:12.762Z,3.60
2017-10-28T18:02:41.024Z,3.53
2017-10-28T18:05:08.536Z,3.00
2017-10-28T18:07:36.027Z,3.40
2017-10-28T18:10:03.548Z,3.63
2017-10-28T18:12:31.456Z,3.60
2017-10-28T18:14:59.375Z,3.80
2017-10-28T18:17:26.881Z,4.30
2017-10-28T18:19:54.536Z,3.57
2017-10-28T18:22:22.040Z,2.97
2017-10-28T18:24:49.562Z,3.93
2017-10-28T18:27:17.056Z,3.10
2017-10-28T18:29:44.555Z,2.93
2017-10-28T18:32:13.561Z,3.93
2017-10-28T18:34:41.067Z,3.80
2017-10-28T18:37:08.563Z,2.90
2017-10-28T18:39:36.460Z,2.80
2017-10-28T18:42:05.488Z,3.20
2017-10-28T18:44:33.000Z,3.00
2017-10-28T18:47:01.296Z,3.27
2017-10-28T18:49:28.808Z,3.10
2017-10-28T18:51:56.328Z,2.90
2017-10-28T18:54:24.607Z,2.53
2017-10-28T18:56:53.492Z,3.10
2017-10-28T18:59:20.988Z,2.20
2017-10-28T19:01:50.109Z,2.40
2017-10-28T19:04:18.371Z,2.63
2017-10-28T19:06:47.277Z,2.83
2017-10-28T19:09:15.171Z,2.53
2017-10-28T19:11:44.206Z,2.20
2017-10-28T19:14:11.819Z,3.40
2017-10-28T19:16:41.201Z,2.63
2017-10-28T19:19:08.815Z,2.70
2017-10-28T19:21:36.841Z,1.87
2017-10-28T19:24:04.501Z,2.60
2017-10-28T19:26:32.927Z,2.37
2017-10-28T19:29:01.268Z,2.57
2017-10-28T19:31:30.196Z,2.50
2017-10-28T19:33:57.792Z,2.27
2017-10-28T19:36:25.801Z,2.60
2017-10-28T19:38:54.118Z,2.30
2017-10-28T20:28:16.064Z,2.93
2017-10-28T20:30:43.569Z,2.27
2017-10-28T20:33:11.857Z,2.50
2017-10-28T20:35:40.116Z,2.30
2017-10-28T20:38:08.056Z,2.97
2017-10-28T20:40:35.572Z,2.63
2017-10-28T20:43:03.082Z,2.67
2017-10-28T20:45:30.582Z,2.60
2017-10-28T20:47:58.097Z,2.20
2017-10-28T20:50:25.589Z,3.30
2017-10-28T20:52:53.111Z,2.40
2017-10-28T20:55:21.371Z,2.77
2017-10-28T20:57:48.889Z,2.87
2017-10-28T21:00:16.386Z,2.30
2017-10-28T21:02:43.936Z,1.77
2017-10-28T21:05:11.432Z,2.30
2017-10-28T21:07:39.329Z,2.50
2017-10-28T21:10:07.227Z,1.90
2017-10-28T21:12:34.715Z,1.60
2017-10-28T21:15:02.213Z,1.70
2017-10-28T21:17:29.715Z,2.10
2017-10-28T21:19:57.983Z,1.80
2017-10-28T21:22:25.478Z,1.60
2017-10-28T21:24:53.384Z,1.93
2017-10-28T21:27:20.877Z,1.43
2017-10-28T21:29:49.534Z,2.00
2017-10-28T21:32:17.803Z,1.77
2017-10-28T21:34:45.708Z,1.40
2017-10-28T21:37:13.675Z,2.00
2017-10-28T21:39:42.328Z,1.20
2017-10-28T21:42:09.822Z,1.77
2017-10-28T21:44:38.476Z,1.57
2017-10-28T21:47:06.748Z,1.70
2017-10-28T21:49:34.659Z,1.50
2017-10-28T21:52:02.164Z,1.70
2017-10-28T21:54:31.040Z,1.53
2017-10-28T21:56:58.528Z,1.50
2017-10-28T21:59:26.038Z,1.90
2017-10-28T22:01:53.550Z,2.00
2017-10-28T22:04:21.067Z,1.50
2017-10-28T22:06:49.339Z,1.50
2017-10-28T22:09:17.613Z,1.57
2017-10-28T22:11:45.107Z,1.67
2017-10-28T22:14:12.634Z,1.50
2017-10-28T22:16:40.126Z,1.80
2017-10-28T22:19:07.643Z,2.40
2017-10-28T22:21:36.643Z,2.00
2017-10-28T22:24:04.164Z,1.80
2017-10-28T22:26:31.656Z,1.90
2017-10-28T22:28:59.162Z,1.90
2017-10-28T22:31:27.060Z,1.30
2017-10-28T22:33:55.340Z,1.63
2017-10-28T22:36:22.840Z,1.53
2017-10-28T22:38:50.350Z,1.40
2017-10-28T22:41:18.616Z,1.40
2017-10-28T22:43:46.518Z,1.80
2017-10-28T22:46:14.020Z,1.37
2017-10-28T22:48:42.303Z,1.10
2017-10-28T22:51:09.792Z,1.30
2017-10-28T22:53:37.315Z,1.50
2017-10-28T22:56:05.586Z,1.50
2017-10-28T22:58:34.586Z,1.60
2017-10-28T23:01:02.080Z,1.60
2017-10-28T23:03:29.571Z,1.80
2017-10-28T23:05:57.064Z,2.53
2017-10-28T23:08:24.564Z,1.53
2017-10-28T23:10:52.075Z,2.00
2017-10-28T23:13:19.675Z,2.30
2017-10-28T23:15:47.958Z,2.00
2017-10-28T23:18:15.447Z,2.13
2017-10-28T23:20:42.969Z,2.07
2017-10-28T23:23:10.459Z,1.60
2017-10-28T23:25:37.979Z,1.90
2017-10-28T23:28:06.243Z,1.90
2017-10-28T23:30:33.746Z,2.20
2017-10-28T23:33:01.237Z,1.87
2017-10-28T23:35:28.763Z,1.80
2017-10-28T23:37:57.391Z,1.83
2017-10-28T23:40:24.911Z,1.67
2017-10-28T23:42:52.409Z,2.40
2017-10-28T23:45:21.056Z,2.03
2017-10-28T23:47:49.675Z,1.73
2017-10-28T23:50:17.195Z,1.80
2017-10-28T23:52:44.696Z,1.30
2017-10-28T23:55:12.216Z,1.60
2017-10-28T23:57:39.711Z,2.07
